Time;durP1;ratioP1;P1;durP2;ratioP2;P2;SDS_P1;SDS_P2;PMS_P1;PMS_P2;Temp;Humidity;BMP_temperature;BMP_pressure;BME280_temperature;BME280_humidity;BME280_pressure;Samples;Min_cycle;Max_cycle;Signal;HPM_P1;HPM_P2
2020/12/10 00:01:37;;;;;;;8.70;6.87;;;;;;;2.58;88.05;97759.63;4918556;29;20109;-61
2020/12/10 00:04:31;;;;;;;9.60;7.40;;;;;;;2.56;88.20;97748.66;4926041;29;20036;-59
2020/12/10 00:10:24;;;;;;;9.63;6.83;;;;;;;2.54;88.33;97747.84;4934641;29;20459;-60
2020/12/10 00:12:49;;;;;;;9.33;6.83;;;;;;;2.49;87.99;97740.25;4935640;29;20170;-59
2020/12/10 00:19:27;;;;;;;8.67;6.37;;;;;;;2.62;88.23;97743.59;4936099;29;20513;-60
2020/12/10 00:21:55;;;;;;;8.20;6.53;;;;;;;2.52;87.57;97747.81;4918256;29;20135;-61
2020/12/10 00:24:21;;;;;;;9.17;6.23;;;;;;;2.51;87.88;97748.66;4936064;29;20042;-60
2020/12/10 00:26:48;;;;;;;10.30;5.90;;;;;;;2.56;87.74;97751.19;4918311;29;20364;-61
2020/12/10 00:29:13;;;;;;;7.50;6.47;;;;;;;2.48;88.02;97748.66;4935287;29;20385;-61
2020/12/10 00:48:57;;;;;;;7.67;5.90;;;;;;;2.52;87.77;97745.28;4937914;29;20098;-60
2020/12/10 00:51:23;;;;;;;6.90;5.47;;;;;;;2.49;87.39;97745.31;4939488;29;20039;-60
2020/12/10 00:53:48;;;;;;;8.30;6.27;;;;;;;2.48;87.79;97740.25;4938643;29;20063;-60
2020/12/10 00:56:14;;;;;;;7.33;5.03;;;;;;;2.41;87.73;97738.56;4939248;29;20059;-60
2020/12/10 00:58:48;;;;;;;7.93;5.87;;;;;;;2.50;87.75;97743.63;4939380;29;20329;-60
2020/12/10 01:04:38;;;;;;;7.50;5.33;;;;;;;2.39;87.81;97733.50;4938104;29;20274;-61
2020/12/10 01:14:06;;;;;;;7.30;4.60;;;;;;;2.49;88.75;97740.25;4958284;29;20094;-61
2020/12/10 01:17:02;;;;;;;6.27;4.50;;;;;;;2.45;88.74;97730.97;4942705;29;20058;-61
2020/12/10 01:22:50;;;;;;;6.30;4.37;;;;;;;2.28;89.20;97723.41;4963559;28;20066;-61
2020/12/10 01:25:15;;;;;;;5.70;4.97;;;;;;;2.31;88.82;97722.56;4976537;28;20031;-60
2020/12/10 01:27:41;;;;;;;7.30;5.40;;;;;;;2.40;89.12;97724.22;4977307;28;20522;-60
2020/12/10 01:30:06;;;;;;;4.47;3.87;;;;;;;2.34;88.86;97720.03;4975836;28;20431;-60
2020/12/10 01:32:32;;;;;;;4.57;3.77;;;;;;;2.37;88.73;97716.66;4975752;28;20406;-60
2020/12/10 01:35:09;;;;;;;6.40;4.60;;;;;;;2.41;88.86;97714.13;4977088;28;20101;-60
2020/12/10 01:47:57;;;;;;;6.30;4.40;;;;;;;2.34;88.52;97707.38;4916119;29;20051;-60
2020/12/10 01:53:43;;;;;;;5.57;4.20;;;;;;;2.29;88.57;97706.56;4935797;29;20476;-61
2020/12/10 01:56:39;;;;;;;4.43;3.97;;;;;;;2.43;88.25;97698.94;4936334;29;20044;-61
2020/12/10 01:59:05;;;;;;;5.20;3.83;;;;;;;2.39;87.58;97705.69;4935358;29;20078;-60
2020/12/10 02:01:32;;;;;;;5.53;4.53;;;;;;;2.39;87.70;97705.69;4935925;29;20060;-61
2020/12/10 02:07:50;;;;;;;4.90;4.13;;;;;;;2.41;88.35;97682.94;4915923;29;20039;-61
2020/12/10 02:10:16;;;;;;;4.50;3.83;;;;;;;2.35;87.43;97682.94;4935699;29;20035;-62
2020/12/10 02:12:42;;;;;;;4.63;3.90;;;;;;;2.38;87.62;97685.47;4935805;28;20031;-61
2020/12/10 02:15:08;;;;;;;4.33;3.87;;;;;;;2.39;86.70;97680.41;4955014;29;20070;-61
2020/12/10 02:17:34;;;;;;;3.90;3.33;;;;;;;2.45;86.04;97682.91;4954860;29;20089;-61
2020/12/10 02:20:08;;;;;;;4.43;3.33;;;;;;;2.51;86.03;97687.09;4954460;28;20054;-61
2020/12/10 02:40:11;;;;;;;3.57;3.13;;;;;;;2.56;85.42;97657.59;4954098;28;20050;-61
2020/12/10 02:45:59;;;;;;;2.70;2.33;;;;;;;2.56;84.84;97647.47;4964908;28;20074;-61
2020/12/10 02:48:24;;;;;;;3.83;3.40;;;;;;;2.55;85.17;97641.56;4966636;28;20030;-61
2020/12/10 03:04:35;;;;;;;3.23;2.93;;;;;;;2.89;82.37;97628.75;4956551;29;20098;-61
2020/12/10 03:13:34;;;;;;;2.63;2.40;;;;;;;2.88;81.85;97619.50;4930741;29;22584;-61
2020/12/10 03:16:00;;;;;;;3.67;2.70;;;;;;;2.84;81.55;97611.09;4918712;29;20112;-61
2020/12/10 03:18:25;;;;;;;3.63;2.47;;;;;;;2.85;81.37;97610.22;4917553;29;20137;-62
2020/12/10 03:20:59;;;;;;;2.77;2.53;;;;;;;2.91;81.49;97615.28;4942373;29;20044;-61
2020/12/10 03:23:25;;;;;;;3.03;2.65;;;;;;;2.81;81.82;97617.84;4936375;29;20023;-61
2020/12/10 03:25:50;;;;;;;2.83;2.47;;;;;;;2.79;82.22;97610.28;4955331;29;20444;-61
2020/12/10 03:28:16;;;;;;;3.07;2.77;;;;;;;2.84;81.51;97608.56;4955921;29;20039;-61
2020/12/10 03:31:34;;;;;;;2.47;2.27;;;;;;;2.90;81.63;97595.84;4955778;29;20038;-59
2020/12/10 03:48:05;;;;;;;2.80;2.10;;;;;;;2.93;81.63;97590.78;4955960;29;20042;-61
2020/12/10 03:57:15;;;;;;;2.00;1.80;;;;;;;2.81;81.66;97598.44;4918348;29;20120;-61
2020/12/10 03:59:40;;;;;;;2.73;2.30;;;;;;;2.81;81.66;97585.78;4916385;29;20050;-60
2020/12/10 04:02:06;;;;;;;3.43;2.40;;;;;;;2.85;82.03;97579.00;4917615;29;20039;-61
2020/12/10 04:08:02;;;;;;;2.03;1.93;;;;;;;2.92;81.24;97593.34;4917485;29;20058;-60
2020/12/10 04:10:33;;;;;;;2.33;2.15;;;;;;;2.84;81.64;97580.72;4924838;29;20437;-61
2020/12/10 04:17:33;;;;;;;3.33;2.57;;;;;;;2.84;81.33;97583.25;4919843;29;20401;-61
2020/12/10 04:20:58;;;;;;;2.23;2.03;;;;;;;2.87;80.25;97582.38;4920079;29;20361;-61
2020/12/10 04:24:23;;;;;;;2.10;1.90;;;;;;;2.85;81.07;97587.44;4919253;29;20032;-61
2020/12/10 04:26:52;;;;;;;2.97;2.40;;;;;;;2.79;81.35;97590.03;4954836;29;20051;-60
2020/12/10 04:33:35;;;;;;;2.50;2.17;;;;;;;2.82;81.86;97586.63;4959742;29;20046;-60
2020/12/10 04:39:31;;;;;;;2.73;2.13;;;;;;;2.86;81.97;97593.34;4920791;29;20127;-60
2020/12/10 04:41:57;;;;;;;2.10;1.95;;;;;;;2.67;82.52;97595.97;4950068;29;20027;-60
2020/12/10 04:44:23;;;;;;;2.17;1.93;;;;;;;2.72;82.60;97589.19;4958395;29;20513;-60
2020/12/10 04:46:50;;;;;;;2.37;2.17;;;;;;;2.67;82.38;97606.09;4938211;29;20442;-60
2020/12/10 04:49:16;;;;;;;3.23;2.17;;;;;;;2.72;82.20;97596.78;4922312;29;20158;-60
2020/12/10 04:51:43;;;;;;;3.07;2.77;;;;;;;2.62;82.49;97586.75;4942405;29;20015;-60
2020/12/10 04:54:08;;;;;;;2.93;2.20;;;;;;;2.60;82.50;97593.47;4959145;29;20050;-60
2020/12/10 04:56:34;;;;;;;2.63;2.43;;;;;;;2.58;82.73;97593.50;4957477;29;20384;-62
2020/12/10 04:59:01;;;;;;;1.97;1.87;;;;;;;2.51;83.17;97599.41;4959654;29;20106;-60
2020/12/10 05:01:26;;;;;;;2.63;2.17;;;;;;;2.51;82.68;97584.25;4957567;29;20059;-60
2020/12/10 05:03:54;;;;;;;2.20;2.00;;;;;;;2.57;83.84;97599.41;4959505;29;20055;-60
2020/12/10 05:06:20;;;;;;;4.13;3.13;;;;;;;2.45;83.43;97591.88;4958165;29;20042;-62
2020/12/10 05:08:45;;;;;;;2.67;2.30;;;;;;;2.48;83.82;97589.31;4940534;29;20032;-61
2020/12/10 05:11:12;;;;;;;2.77;2.57;;;;;;;2.43;84.29;97588.50;4943349;29;20019;-61
2020/12/10 05:13:38;;;;;;;2.43;1.97;;;;;;;2.39;84.39;97583.44;4957641;29;20050;-60
2020/12/10 05:16:04;;;;;;;2.43;2.23;;;;;;;2.44;84.16;97585.13;4957643;29;20035;-60
2020/12/10 05:18:30;;;;;;;2.37;2.17;;;;;;;2.33;84.57;97584.34;4959018;29;20049;-60
2020/12/10 05:20:57;;;;;;;2.97;2.37;;;;;;;2.34;84.97;97587.66;4943691;29;20031;-61
2020/12/10 05:23:36;;;;;;;3.20;2.40;;;;;;;2.37;85.05;97586.00;4958829;29;20034;-61
2020/12/10 05:26:02;;;;;;;2.63;2.43;;;;;;;2.34;84.93;97587.66;4955101;29;20037;-61
2020/12/10 05:28:40;;;;;;;2.73;2.53;;;;;;;2.41;85.37;97582.63;4920815;29;20472;-61
2020/12/10 05:31:07;;;;;;;2.97;2.30;;;;;;;2.35;85.03;97595.25;4919294;29;20461;-61
2020/12/10 05:33:34;;;;;;;3.50;2.70;;;;;;;2.34;85.29;97588.53;4918909;29;20028;-60
2020/12/10 05:36:10;;;;;;;2.23;2.03;;;;;;;2.35;85.34;97592.72;4919487;29;20024;-60
2020/12/10 05:39:02;;;;;;;2.37;2.17;;;;;;;2.38;84.74;97599.50;4920826;29;20024;-59
2020/12/10 05:41:28;;;;;;;3.77;2.53;;;;;;;2.31;85.83;97591.06;4923873;29;20529;-60
2020/12/10 05:43:54;;;;;;;3.33;2.53;;;;;;;2.32;86.24;97589.38;4941737;29;20034;-60
2020/12/10 05:46:24;;;;;;;2.67;2.13;;;;;;;2.29;85.68;97591.06;4956661;29;20481;-59
2020/12/10 05:48:51;;;;;;;2.63;2.30;;;;;;;2.29;85.82;97592.78;4958932;29;20364;-59
2020/12/10 05:51:22;;;;;;;4.87;3.33;;;;;;;2.33;85.40;97596.97;4940185;29;20024;-60
2020/12/10 05:53:49;;;;;;;2.93;2.63;;;;;;;2.35;85.59;97595.25;4920514;29;20035;-61
2020/12/10 05:56:15;;;;;;;3.27;2.53;;;;;;;2.34;85.25;97591.03;4919007;29;20335;-61
2020/12/10 05:58:52;;;;;;;2.70;2.23;;;;;;;2.37;85.85;97591.06;4919438;29;20059;-59
2020/12/10 06:01:27;;;;;;;2.63;2.17;;;;;;;2.32;85.98;97576.75;4936767;29;20476;-59
2020/12/10 06:03:54;;;;;;;2.65;2.45;;;;;;;2.31;85.97;97573.38;4956678;29;20290;-61
2020/12/10 06:06:20;;;;;;;2.60;2.37;;;;;;;2.27;85.92;97576.75;4956322;29;20030;-62
2020/12/10 06:08:49;;;;;;;3.33;2.37;;;;;;;2.31;86.04;97563.25;4957713;29;20087;-62
2020/12/10 06:11:19;;;;;;;7.37;2.80;;;;;;;2.34;86.46;97562.38;4942725;29;20031;-61
2020/12/10 06:13:44;;;;;;;2.93;2.63;;;;;;;2.34;86.30;97560.69;4919203;29;20458;-60
2020/12/10 06:16:17;;;;;;;2.80;2.47;;;;;;;2.38;86.06;97562.38;4926148;29;20073;-61
2020/12/10 06:19:04;;;;;;;2.97;2.13;;;;;;;2.31;85.63;97563.25;4958282;29;20050;-61
2020/12/10 06:21:58;;;;;;;3.90;2.80;;;;;;;2.24;85.48;97570.03;4942677;29;20512;-60
2020/12/10 06:24:24;;;;;;;3.73;2.80;;;;;;;2.14;86.48;97560.78;4944122;29;20464;-61
2020/12/10 06:26:49;;;;;;;3.20;2.77;;;;;;;2.18;86.90;97564.97;4956355;29;20094;-61
2020/12/10 06:29:18;;;;;;;4.00;2.80;;;;;;;2.22;86.26;97560.75;4957172;29;20401;-60
2020/12/10 06:32:09;;;;;;;2.87;2.57;;;;;;;2.18;86.34;97566.66;4956108;29;20019;-61
2020/12/10 06:34:42;;;;;;;3.77;2.30;;;;;;;2.21;87.03;97559.06;4920640;29;20031;-60
2020/12/10 06:37:18;;;;;;;3.07;2.47;;;;;;;2.18;86.42;97562.44;4918012;29;20028;-61
2020/12/10 06:39:44;;;;;;;4.30;2.80;;;;;;;2.17;86.37;97563.28;4930352;29;20038;-61
2020/12/10 06:42:09;;;;;;;3.20;2.87;;;;;;;2.15;86.62;97565.00;4948975;29;20453;-61
2020/12/10 06:44:35;;;;;;;3.80;2.73;;;;;;;2.20;86.33;97563.31;4955751;28;20031;-60
2020/12/10 06:47:03;;;;;;;3.60;3.17;;;;;;;2.31;86.44;97560.72;4931811;29;20056;-60
2020/12/10 06:49:33;;;;;;;5.07;2.50;;;;;;;2.25;87.31;97568.31;4922089;29;20027;-61
2020/12/10 06:52:16;;;;;;;2.87;2.27;;;;;;;2.34;86.60;97569.97;4924198;29;20019;-60
2020/12/10 06:55:03;;;;;;;3.97;2.53;;;;;;;2.37;87.20;97569.97;4930307;29;20119;-61
2020/12/10 06:57:51;;;;;;;2.43;2.10;;;;;;;2.34;86.34;97572.50;4938061;29;20351;-60
2020/12/10 07:00:36;;;;;;;2.80;2.07;;;;;;;2.41;85.33;97576.72;4937246;29;20534;-60
2020/12/10 07:03:30;;;;;;;2.70;2.47;;;;;;;2.45;85.65;97573.31;4901709;29;20034;-60
2020/12/10 07:05:56;;;;;;;1.70;1.60;;;;;;;2.45;84.77;97571.63;4917589;29;20028;-61
2020/12/10 07:08:22;;;;;;;2.50;1.80;;;;;;;2.43;84.48;97575.00;4917635;29;20048;-60
2020/12/10 07:10:51;;;;;;;3.13;2.13;;;;;;;2.44;83.68;97569.94;4936612;29;20087;-60
2020/12/10 07:13:29;;;;;;;3.93;2.40;;;;;;;2.53;84.22;97571.59;4936373;29;20381;-60
2020/12/10 07:15:55;;;;;;;1.83;1.73;;;;;;;2.53;83.80;97574.13;4918058;29;20115;-60
2020/12/10 07:18:20;;;;;;;2.83;1.90;;;;;;;2.54;83.33;97568.22;4923110;29;20133;-61
2020/12/10 07:20:46;;;;;;;1.80;1.70;;;;;;;2.52;83.48;97562.31;4939194;29;20353;-61
2020/12/10 07:23:11;;;;;;;1.83;1.73;;;;;;;2.47;83.31;97582.56;4936311;29;20043;-59
2020/12/10 07:25:37;;;;;;;2.93;1.93;;;;;;;2.50;83.20;97564.03;4942943;29;20043;-61
2020/12/10 07:28:02;;;;;;;2.10;1.90;;;;;;;2.51;82.84;97564.00;4936184;29;20032;-60
2020/12/10 07:30:30;;;;;;;2.03;1.80;;;;;;;2.56;82.65;97554.72;4923482;29;20110;-61
2020/12/10 07:32:59;;;;;;;2.97;1.97;;;;;;;2.63;82.70;97547.94;4917385;29;20016;-61
2020/12/10 07:35:31;;;;;;;1.70;1.60;;;;;;;2.65;81.93;97551.28;4940416;29;20501;-62
2020/12/10 07:38:06;;;;;;;2.23;1.70;;;;;;;2.58;81.72;97558.09;4943553;29;20027;-62
2020/12/10 07:40:31;;;;;;;;;;;;;;;2.69;81.67;97553.81;4935126;29;20027;-61
2020/12/10 07:43:02;;;;;;;2.17;1.87;;;;;;;2.67;82.13;97564.78;4942861;29;19930;-62
2020/12/10 07:45:28;;;;;;;1.90;1.80;;;;;;;2.71;81.28;97558.88;4947546;29;20444;-61
2020/12/10 07:48:00;;;;;;;1.90;1.80;;;;;;;2.68;82.01;97552.13;4955926;29;20042;-62
2020/12/10 07:50:26;;;;;;;1.97;1.80;;;;;;;2.75;81.43;97558.00;4938852;29;20035;-61
2020/12/10 07:52:53;;;;;;;1.90;1.80;;;;;;;2.66;81.58;97563.94;4917595;29;20028;-61
2020/12/10 07:55:27;;;;;;;1.80;1.70;;;;;;;2.72;81.77;97545.34;4949345;29;20031;-61
2020/12/10 07:58:10;;;;;;;2.00;1.80;;;;;;;2.76;82.03;97555.44;4952821;28;20049;-62
2020/12/10 08:00:37;;;;;;;1.87;1.77;;;;;;;2.72;81.24;97556.31;4938356;29;20023;-62
2020/12/10 08:03:09;;;;;;;3.97;1.70;;;;;;;2.84;81.50;97557.09;4948363;29;20110;-62
2020/12/10 08:05:35;;;;;;;1.97;1.80;;;;;;;2.80;81.35;97553.72;4935292;29;20031;-62
2020/12/10 08:08:01;;;;;;;1.70;1.60;;;;;;;2.79;81.00;97558.81;4930356;29;20028;-62
2020/12/10 08:10:29;;;;;;;1.63;1.53;;;;;;;2.84;80.92;97552.03;4917500;29;20132;-62
2020/12/10 08:13:18;;;;;;;1.83;1.73;;;;;;;2.92;81.25;97558.75;4923802;29;20373;-63
2020/12/10 08:15:48;;;;;;;2.07;1.87;;;;;;;2.92;81.24;97552.84;4926711;29;20039;-62
2020/12/10 08:18:16;;;;;;;2.20;1.93;;;;;;;2.92;80.45;97552.84;4942136;29;20030;-62
2020/12/10 08:20:50;;;;;;;1.73;1.63;;;;;;;3.03;80.12;97548.53;4944373;29;20039;-63
2020/12/10 08:23:18;;;;;;;2.73;2.53;;;;;;;2.95;80.77;97550.28;4941169;29;20122;-64
2020/12/10 08:25:46;;;;;;;1.87;1.70;;;;;;;2.96;80.56;97550.28;4929435;29;20023;-63
2020/12/10 08:28:13;;;;;;;2.03;1.83;;;;;;;2.94;80.14;97541.84;4914305;29;20039;-63
2020/12/10 08:30:52;;;;;;;3.67;1.80;;;;;;;3.02;80.41;97546.84;4916193;29;20036;-62
2020/12/10 08:33:18;;;;;;;1.83;1.73;;;;;;;3.04;80.45;97525.75;4899123;29;20080;-62
2020/12/10 08:35:45;;;;;;;2.07;1.93;;;;;;;2.98;79.80;97553.63;4917509;29;20462;-61
2020/12/10 08:38:10;;;;;;;2.67;1.90;;;;;;;3.05;79.01;97554.44;4907564;29;20110;-62
2020/12/10 08:40:36;;;;;;;1.93;1.73;;;;;;;3.11;79.60;97540.03;4955928;29;20087;-62
2020/12/10 08:43:28;;;;;;;2.47;2.27;;;;;;;3.23;79.36;97550.06;4953393;29;20114;-62
2020/12/10 08:45:53;;;;;;;1.83;1.60;;;;;;;3.11;79.71;97556.91;4935088;29;20036;-63
2020/12/10 08:48:27;;;;;;;1.97;1.63;;;;;;;3.08;79.79;97572.13;4916872;29;20372;-63
2020/12/10 08:50:57;;;;;;;1.97;1.80;;;;;;;3.09;79.61;97563.69;4923241;29;20028;-63
2020/12/10 08:53:24;;;;;;;1.70;1.60;;;;;;;3.08;80.41;97559.47;4900442;29;20477;-62
2020/12/10 08:55:52;;;;;;;1.67;1.57;;;;;;;3.09;79.89;97561.16;4916705;29;20027;-62
2020/12/10 08:58:21;;;;;;;3.23;2.20;;;;;;;3.16;79.46;97556.03;4917329;29;20385;-62
2020/12/10 09:00:47;;;;;;;2.23;1.60;;;;;;;3.18;79.17;97558.56;4926118;29;20071;-62
2020/12/10 09:03:14;;;;;;;2.43;1.70;;;;;;;3.30;79.17;97550.03;4953905;29;20023;-62
2020/12/10 09:05:40;;;;;;;1.80;1.70;;;;;;;3.26;79.27;97555.97;4915632;29;20043;-62
2020/12/10 09:08:05;;;;;;;1.90;1.43;;;;;;;3.25;78.76;97562.72;4934758;28;20354;-62
2020/12/10 09:10:31;;;;;;;2.03;1.70;;;;;;;3.23;79.64;97561.88;4942430;29;20348;-62
2020/12/10 09:12:58;;;;;;;3.57;1.73;;;;;;;3.23;79.76;97562.72;4949862;29;20464;-63
2020/12/10 09:15:23;;;;;;;2.67;1.80;;;;;;;3.15;79.78;97567.00;4957556;29;20168;-62
2020/12/10 09:17:49;;;;;;;2.23;2.03;;;;;;;3.25;79.01;97555.13;4919557;29;20107;-62
2020/12/10 09:20:15;;;;;;;2.33;1.67;;;;;;;3.14;79.83;97569.56;4942809;29;20114;-63
2020/12/10 09:22:40;;;;;;;2.77;2.33;;;;;;;3.16;79.97;97550.13;4935583;29;20024;-62
2020/12/10 09:25:05;;;;;;;6.80;2.87;;;;;;;3.19;80.69;97552.63;4935077;29;20042;-63
2020/12/10 09:27:33;;;;;;;3.17;2.27;;;;;;;3.14;80.47;97556.91;4944834;29;20103;-61
2020/12/10 09:29:58;;;;;;;2.00;1.90;;;;;;;3.08;80.43;97557.78;4933601;29;20078;-62
2020/12/10 09:32:24;;;;;;;2.10;2.00;;;;;;;2.92;81.48;97568.88;4941687;29;20114;-62
2020/12/10 09:34:50;;;;;;;1.97;1.87;;;;;;;2.92;81.71;97560.44;4929266;29;20452;-62
2020/12/10 09:37:15;;;;;;;3.73;1.70;;;;;;;2.88;82.02;97557.09;4930784;29;20430;-62
2020/12/10 09:39:41;;;;;;;2.40;1.90;;;;;;;2.86;83.21;97573.09;4925062;29;20360;-62
2020/12/10 09:42:06;;;;;;;2.03;1.80;;;;;;;2.97;82.67;97561.25;4934545;29;20028;-62
2020/12/10 09:44:32;;;;;;;4.50;2.37;;;;;;;2.88;83.22;97558.75;4937014;29;20146;-62
2020/12/10 09:46:57;;;;;;;2.47;1.70;;;;;;;2.89;83.70;97555.38;4938435;29;20032;-62
2020/12/10 09:49:23;;;;;;;2.73;1.90;;;;;;;3.04;82.67;97547.69;4932819;29;20429;-63
2020/12/10 09:51:53;;;;;;;4.53;2.47;;;;;;;3.07;83.42;97555.25;4926993;29;20095;-63
2020/12/10 09:57:06;;;;;;;2.73;2.30;;;;;;;2.99;84.16;97546.88;4950698;29;20046;-64
2020/12/10 09:59:35;;;;;;;3.13;2.03;;;;;;;2.94;83.88;97553.66;4956834;29;20034;-62
2020/12/10 10:02:01;;;;;;;3.80;1.70;;;;;;;2.89;84.26;97540.19;4942415;29;20352;-61
2020/12/10 10:04:27;;;;;;;2.10;1.90;;;;;;;2.92;84.03;97550.31;4916839;29;20024;-63
2020/12/10 10:06:53;;;;;;;2.07;1.87;;;;;;;3.04;84.08;97535.88;4933227;29;20134;-62
2020/12/10 10:09:18;;;;;;;2.20;1.90;;;;;;;2.99;84.51;97545.19;4933025;29;20032;-62
2020/12/10 10:11:44;;;;;;;2.27;2.10;;;;;;;3.00;83.63;97539.28;4944355;29;20057;-62
2020/12/10 10:14:10;;;;;;;2.07;1.90;;;;;;;2.95;83.59;97541.00;4947479;29;20091;-62
2020/12/10 10:16:35;;;;;;;2.37;2.17;;;;;;;2.96;84.04;97547.75;4924826;29;20023;-62
2020/12/10 10:19:01;;;;;;;2.23;2.03;;;;;;;3.00;84.63;97544.34;4944184;29;20445;-62
2020/12/10 10:21:28;;;;;;;3.00;2.10;;;;;;;2.99;85.05;97550.25;4926070;29;20094;-62
2020/12/10 10:23:57;;;;;;;1.97;1.77;;;;;;;3.17;84.83;97542.53;4928209;29;20052;-62
2020/12/10 10:26:24;;;;;;;4.10;2.10;;;;;;;3.20;84.60;97542.50;4952788;29;20341;-62
2020/12/10 10:28:52;;;;;;;2.20;2.10;;;;;;;3.19;85.90;97542.50;4932229;29;20039;-62
2020/12/10 10:31:17;;;;;;;2.10;1.90;;;;;;;3.15;85.79;97544.22;4940934;29;20114;-62
2020/12/10 10:33:43;;;;;;;2.50;1.90;;;;;;;3.21;84.19;97536.59;4927493;29;20454;-63
2020/12/10 10:36:10;;;;;;;3.97;2.20;;;;;;;3.23;84.54;97541.63;4945990;29;20043;-62
2020/12/10 10:38:36;;;;;;;1.80;1.70;;;;;;;3.33;83.84;97542.41;4943235;29;20035;-62
2020/12/10 10:41:02;;;;;;;3.03;2.17;;;;;;;3.30;84.08;97538.22;4922465;29;20437;-62
2020/12/10 10:43:27;;;;;;;2.00;1.80;;;;;;;3.26;84.66;97539.09;4917795;29;20051;-62
2020/12/10 10:45:54;;;;;;;2.73;1.97;;;;;;;3.36;84.16;97534.75;4923689;29;20127;-62
2020/12/10 10:48:19;;;;;;;1.83;1.73;;;;;;;3.34;84.47;97533.97;4956078;29;20035;-62
2020/12/10 10:50:44;;;;;;;1.87;1.77;;;;;;;3.31;84.40;97544.94;4941532;29;20042;-62
2020/12/10 10:53:10;;;;;;;2.13;1.93;;;;;;;3.28;84.25;97534.84;4919025;29;20028;-62
2020/12/10 10:55:35;;;;;;;4.73;3.23;;;;;;;3.32;84.10;97531.44;4922354;29;20040;-62
2020/12/10 10:58:01;;;;;;;2.60;2.30;;;;;;;3.47;84.09;97533.00;4936228;29;20074;-62
2020/12/10 11:00:26;;;;;;;4.47;3.00;;;;;;;3.45;84.07;97532.16;4932718;29;20377;-62
2020/12/10 11:02:51;;;;;;;4.60;4.20;;;;;;;3.45;84.04;97527.94;4937805;29;20095;-62
2020/12/10 11:05:17;;;;;;;3.17;2.67;;;;;;;3.46;84.78;97532.16;4937854;29;20070;-63
2020/12/10 11:07:43;;;;;;;2.77;2.30;;;;;;;3.59;83.44;97525.28;4924986;29;20032;-62
2020/12/10 11:10:09;;;;;;;3.33;2.30;;;;;;;3.68;82.58;97531.13;4918561;29;20083;-63
2020/12/10 11:12:35;;;;;;;4.50;2.20;;;;;;;3.67;82.89;97526.06;4937783;29;20051;-62
2020/12/10 11:15:01;;;;;;;2.37;1.70;;;;;;;3.58;82.27;97526.97;4956661;29;20077;-62
2020/12/10 11:17:26;;;;;;;3.97;2.37;;;;;;;3.64;83.10;97521.03;4955350;29;20037;-63
2020/12/10 11:19:52;;;;;;;3.23;2.37;;;;;;;3.68;82.88;97525.22;4949162;29;20039;-62
2020/12/10 11:22:17;;;;;;;3.60;2.13;;;;;;;3.67;83.34;97515.91;4949400;29;20043;-63
2020/12/10 11:24:43;;;;;;;3.07;2.50;;;;;;;3.78;83.25;97511.56;4956343;29;20039;-63
2020/12/10 11:27:08;;;;;;;1.93;1.77;;;;;;;3.79;82.48;97517.47;4955399;29;20391;-63
2020/12/10 11:29:34;;;;;;;2.30;2.10;;;;;;;3.87;81.70;97523.31;4956356;29;20527;-63
2020/12/10 11:31:59;;;;;;;2.40;2.20;;;;;;;3.81;82.34;97519.16;4954874;29;20027;-63
2020/12/10 11:34:25;;;;;;;2.73;2.10;;;;;;;3.84;82.59;97514.06;4956170;29;20031;-63
2020/12/10 11:36:50;;;;;;;1.40;1.30;;;;;;;3.85;82.16;97515.75;4931310;29;20338;-63
2020/12/10 11:39:16;;;;;;;1.60;1.50;;;;;;;3.71;80.85;97516.72;4936968;29;20063;-63
2020/12/10 11:41:42;;;;;;;2.17;1.90;;;;;;;3.77;81.65;97512.44;4940648;29;20042;-63
2020/12/10 11:44:08;;;;;;;3.60;2.33;;;;;;;3.72;82.72;97511.66;4956636;29;20345;-63
2020/12/10 11:46:33;;;;;;;5.33;2.60;;;;;;;3.61;82.76;97519.34;4955031;29;20431;-63
2020/12/10 11:48:59;;;;;;;3.93;2.80;;;;;;;3.61;83.08;97518.50;4956386;29;20090;-62
2020/12/10 11:51:24;;;;;;;3.23;2.40;;;;;;;3.65;82.45;97510.84;4919811;29;20023;-63
2020/12/10 11:53:50;;;;;;;2.97;2.30;;;;;;;3.53;82.49;97515.19;4956050;29;20528;-63
2020/12/10 11:56:16;;;;;;;3.83;2.70;;;;;;;3.65;83.22;97510.00;4955221;29;20067;-62
2020/12/10 11:58:42;;;;;;;3.70;1.97;;;;;;;3.65;82.97;97507.47;4955652;29;20154;-62
2020/12/10 12:01:08;;;;;;;2.83;2.33;;;;;;;3.60;82.90;97510.06;4954992;29;20113;-62
2020/12/10 12:03:33;;;;;;;3.67;2.10;;;;;;;3.56;83.10;97505.91;4953737;29;20031;-63
2020/12/10 12:05:59;;;;;;;4.60;3.00;;;;;;;3.44;84.19;97510.22;4955523;29;20102;-63
2020/12/10 12:08:25;;;;;;;3.13;2.37;;;;;;;3.52;84.46;97509.28;4940697;29;20502;-63
2020/12/10 12:10:54;;;;;;;3.20;2.90;;;;;;;3.57;84.02;97510.09;4917512;29;20358;-63
2020/12/10 12:13:20;;;;;;;3.43;3.03;;;;;;;3.52;84.28;97511.81;4939836;29;20376;-63
2020/12/10 12:15:46;;;;;;;5.20;2.83;;;;;;;3.54;84.07;97507.59;4956188;29;20038;-63
2020/12/10 12:18:12;;;;;;;2.13;1.97;;;;;;;3.41;83.51;97511.09;4954535;29;20145;-62
2020/12/10 12:20:37;;;;;;;2.20;2.00;;;;;;;3.45;83.83;97511.91;4943777;29;20036;-62
2020/12/10 12:23:05;;;;;;;4.47;2.90;;;;;;;3.51;84.07;97507.63;4936597;29;20038;-63
2020/12/10 12:25:30;;;;;;;4.87;2.53;;;;;;;3.47;84.78;97505.97;4956280;29;20098;-62
2020/12/10 12:27:55;;;;;;;2.77;2.50;;;;;;;3.51;84.46;97507.63;4954282;29;20334;-63
2020/12/10 12:30:21;;;;;;;1.90;1.80;;;;;;;3.62;83.45;97512.56;4920455;29;20122;-63
2020/12/10 12:32:46;;;;;;;2.53;2.20;;;;;;;3.74;83.51;97506.53;4939081;29;20030;-63
2020/12/10 12:35:12;;;;;;;3.07;2.77;;;;;;;3.80;83.81;97504.81;4955809;29;20107;-62
2020/12/10 12:37:37;;;;;;;2.60;2.33;;;;;;;3.65;83.68;97507.47;4953675;29;20115;-62
2020/12/10 12:40:03;;;;;;;3.00;2.37;;;;;;;3.62;83.47;97508.34;4955695;29;20031;-62
2020/12/10 12:42:28;;;;;;;2.67;2.43;;;;;;;3.67;83.55;97505.78;4954543;28;20054;-62
2020/12/10 12:44:54;;;;;;;2.93;1.97;;;;;;;3.85;83.43;97509.81;4920185;29;20044;-62
2020/12/10 12:47:19;;;;;;;2.40;2.17;;;;;;;3.71;83.56;97504.88;4920577;29;20402;-64
2020/12/10 12:49:45;;;;;;;5.43;3.53;;;;;;;3.74;83.82;97509.06;4949268;29;20067;-62
2020/12/10 12:52:10;;;;;;;5.47;4.30;;;;;;;3.84;83.57;97506.44;4939471;29;20028;-63
2020/12/10 12:54:36;;;;;;;4.93;2.80;;;;;;;3.73;82.62;97508.25;4953694;29;20035;-62
2020/12/10 12:57:01;;;;;;;7.27;4.33;;;;;;;3.90;82.88;97506.41;4958875;29;20086;-62
2020/12/10 12:59:27;;;;;;;2.17;1.97;;;;;;;3.81;81.57;97513.25;4931312;29;20413;-63
2020/12/10 13:01:52;;;;;;;2.00;1.90;;;;;;;3.90;81.75;97513.16;4920108;29;20123;-63
2020/12/10 13:04:20;;;;;;;2.10;1.90;;;;;;;3.97;82.01;97509.69;4919831;29;20047;-63
2020/12/10 13:06:47;;;;;;;2.23;2.03;;;;;;;4.03;81.58;97512.97;4920681;29;20035;-62
2020/12/10 13:09:17;;;;;;;5.13;2.03;;;;;;;4.13;81.63;97516.25;4933301;29;20109;-63
2020/12/10 13:11:46;;;;;;;2.30;2.10;;;;;;;4.11;81.78;97513.75;4958586;29;20047;-63
2020/12/10 13:14:12;;;;;;;2.70;2.20;;;;;;;4.19;81.66;97517.91;4948718;29;20409;-61
2020/12/10 13:16:42;;;;;;;2.27;2.07;;;;;;;4.38;79.67;97521.88;4920986;29;20458;-62
2020/12/10 13:19:09;;;;;;;2.23;1.77;;;;;;;4.32;80.06;97517.72;4925018;29;20368;-63
2020/12/10 13:21:34;;;;;;;3.63;1.73;;;;;;;4.29;79.91;97520.28;4939713;29;20509;-63
2020/12/10 13:24:00;;;;;;;5.97;2.10;;;;;;;4.18;80.74;97523.81;4938866;29;20071;-63
2020/12/10 13:26:29;;;;;;;1.83;1.70;;;;;;;4.20;80.59;97527.19;4959440;29;20460;-63
2020/12/10 13:28:55;;;;;;;1.80;1.70;;;;;;;4.11;81.29;97525.59;4957863;29;20495;-61
2020/12/10 13:31:35;;;;;;;1.80;1.70;;;;;;;4.17;81.04;97527.19;4958271;29;20448;-62
2020/12/10 13:34:02;;;;;;;2.17;1.97;;;;;;;4.19;80.93;97528.88;4929768;29;20142;-62
2020/12/10 13:36:27;;;;;;;1.70;1.60;;;;;;;4.15;81.45;97537.38;4918797;29;20032;-61
2020/12/10 13:38:53;;;;;;;7.20;3.93;;;;;;;4.16;82.89;97538.22;4931051;29;20032;-61
2020/12/10 13:41:19;;;;;;;4.60;3.80;;;;;;;4.13;83.43;97536.53;4920068;29;20047;-63
2020/12/10 13:43:47;;;;;;;4.90;3.67;;;;;;;4.11;83.87;97540.81;4918727;29;20036;-62
2020/12/10 13:46:14;;;;;;;6.23;4.93;;;;;;;4.11;83.85;97544.19;4920491;29;20032;-62
2020/12/10 13:48:41;;;;;;;7.27;6.20;;;;;;;4.18;84.05;97539.88;4919279;29;20362;-62
2020/12/10 13:51:06;;;;;;;9.87;7.50;;;;;;;4.09;84.48;97542.50;4934366;29;20072;-62
2020/12/10 13:53:32;;;;;;;7.87;5.70;;;;;;;4.12;85.18;97542.47;4937974;29;20031;-62
2020/12/10 13:55:58;;;;;;;10.27;6.03;;;;;;;4.18;85.13;97542.41;4954297;29;20155;-63
2020/12/10 13:58:24;;;;;;;6.83;5.17;;;;;;;4.17;84.88;97547.50;4957522;29;20118;-63
2020/12/10 14:00:49;;;;;;;5.60;4.43;;;;;;;4.16;84.82;97544.13;4957289;29;20415;-63
2020/12/10 14:03:15;;;;;;;6.83;6.13;;;;;;;4.17;84.73;97543.25;4957557;29;20027;-63
2020/12/10 14:05:40;;;;;;;7.77;6.13;;;;;;;4.11;85.20;97543.34;4932789;29;20028;-63